Weather at MCOLF Camp Pendleton (Red Beach) Airport [CLOSED]

Public forecast

Using degrees Fahrenheit for public forecast. Weather courtesy of forecast.io.

Closest aviation weather report (METAR) to MCOLF Camp Pendleton (Red Beach) Airport

Closest report is Camp Pendleton MCAS (Munn Field) Airport, 5.2 nm (9.6 km) E. Retrieved 2020/10/25 14:55 UTC (2 hours ago):

KNFG 251455Z AUTO 23004KT 10SM OVC050 18/12 A2992 RMK AO2 SLP132 T01830122 51002

Closest aviation forecast (TAF) to MCOLF Camp Pendleton (Red Beach) Airport

Closest forecast is Mc Clellan-Palomar Airport, 13.0 nm (24.0 km) SE. Retrieved 2020/10/25 12:36 UTC (4 hours ago):

TAF KCRQ 251133Z 2512/2612 VRB04KT P6SM VCSH OVC025 FM251900 26011KT P6SM VCSH SCT022 BKN035 FM260200 VRB05KT P6SM VCSH SCT020 BKN035